createdAt,value
2023-03-06T00:00:47.251Z,6.31
2023-03-06T00:01:51.786Z,6.30
2023-03-06T00:03:13.361Z,6.29
2023-03-06T00:04:35.974Z,6.29
2023-03-06T00:05:59.393Z,6.29
2023-03-06T00:07:23.318Z,6.28
2023-03-06T00:08:44.867Z,6.28
2023-03-06T00:10:07.868Z,6.27
2023-03-06T00:11:30.446Z,6.29
2023-03-06T00:12:52.813Z,6.29
2023-03-06T00:14:15.905Z,6.29
2023-03-06T00:15:26.732Z,6.29
2023-03-06T00:16:29.375Z,6.30
2023-03-06T00:17:30.886Z,6.29
2023-03-06T00:18:33.766Z,6.32
2023-03-06T00:19:35.606Z,6.34
2023-03-06T00:20:40.613Z,6.34
2023-03-06T00:21:42.294Z,6.34
2023-03-06T00:22:46.314Z,6.35
2023-03-06T00:23:47.974Z,6.36
2023-03-06T00:24:50.483Z,6.38
2023-03-06T00:25:52.105Z,6.38
2023-03-06T00:26:54.625Z,6.38
2023-03-06T00:27:56.199Z,6.38
2023-03-06T00:28:58.884Z,6.37
2023-03-06T00:30:01.369Z,6.36
2023-03-06T00:31:05.080Z,6.36
2023-03-06T00:32:07.741Z,6.37
2023-03-06T00:33:10.330Z,6.36
2023-03-06T00:34:12.271Z,6.35
2023-03-06T00:35:15.553Z,6.35
2023-03-06T00:36:17.480Z,6.34
2023-03-06T00:37:20.848Z,6.34
2023-03-06T00:38:25.238Z,6.32
2023-03-06T00:39:27.752Z,6.32
2023-03-06T00:40:29.253Z,6.32
2023-03-06T00:41:31.765Z,6.31
2023-03-06T00:42:33.319Z,6.32
2023-03-06T00:43:35.878Z,6.34
2023-03-06T00:44:37.388Z,6.36
2023-03-06T00:45:40.411Z,6.36
2023-03-06T00:46:42.183Z,6.38
2023-03-06T00:47:44.864Z,6.39
2023-03-06T00:48:46.479Z,6.39
2023-03-06T00:49:48.959Z,6.41
2023-03-06T00:50:50.485Z,6.40
2023-03-06T00:51:52.983Z,6.38
2023-03-06T00:52:54.563Z,6.36
2023-03-06T00:53:58.394Z,6.35
2023-03-06T00:55:00.185Z,6.36
2023-03-06T00:56:02.670Z,6.35
2023-03-06T00:57:05.082Z,6.36
2023-03-06T00:58:07.575Z,6.35
2023-03-06T00:59:09.121Z,6.34
2023-03-06T01:00:14.053Z,6.33
2023-03-06T01:01:16.936Z,6.31
2023-03-06T01:02:20.536Z,6.29
2023-03-06T01:03:22.115Z,6.27
2023-03-06T01:04:24.946Z,6.25
2023-03-06T01:05:26.550Z,6.23
2023-03-06T01:06:29.503Z,6.21
2023-03-06T01:07:33.921Z,6.21
2023-03-06T01:08:36.581Z,6.19
2023-03-06T01:09:39.476Z,6.18
2023-03-06T01:10:42.063Z,6.17
2023-03-06T01:11:43.620Z,6.14
2023-03-06T01:12:46.661Z,6.10
2023-03-06T01:13:48.358Z,6.10
2023-03-06T01:14:50.897Z,6.06
2023-03-06T01:15:52.792Z,6.03
2023-03-06T01:16:55.294Z,6.00
2023-03-06T01:17:56.948Z,5.97
2023-03-06T01:18:59.901Z,5.94
2023-03-06T01:20:01.550Z,5.91
2023-03-06T01:21:04.822Z,5.88
2023-03-06T01:22:06.624Z,5.86
2023-03-06T01:23:09.192Z,5.86
2023-03-06T01:24:10.817Z,5.86
2023-03-06T01:25:14.692Z,5.86
2023-03-06T01:26:16.324Z,5.87
2023-03-06T01:27:18.946Z,5.88
2023-03-06T01:28:20.503Z,5.87
2023-03-06T01:29:23.021Z,5.88
2023-03-06T01:30:24.566Z,5.89
2023-03-06T01:31:27.403Z,5.89
2023-03-06T01:32:30.608Z,5.90
2023-03-06T01:33:33.626Z,5.90
2023-03-06T01:34:35.204Z,5.91
2023-03-06T01:35:39.034Z,5.91
2023-03-06T01:36:40.880Z,5.91
2023-03-06T01:37:43.476Z,5.93
2023-03-06T01:38:45.080Z,5.94
2023-03-06T01:39:47.596Z,5.96
2023-03-06T01:40:51.592Z,5.96
2023-03-06T01:41:53.321Z,5.98
2023-03-06T01:42:55.856Z,5.99
2023-03-06T01:43:57.361Z,5.99
2023-03-06T01:45:01.884Z,6.00
2023-03-06T01:46:38.681Z,6.02
2023-03-06T01:47:40.374Z,6.02
2023-03-06T01:48:44.329Z,6.03
2023-03-06T01:49:45.951Z,6.03
2023-03-06T01:50:49.109Z,6.04
2023-03-06T01:51:55.246Z,6.04
2023-03-06T01:52:59.453Z,6.06
2023-03-06T01:54:07.515Z,6.07
2023-03-06T01:55:13.372Z,6.06
2023-03-06T01:56:17.596Z,6.08
2023-03-06T01:57:22.376Z,6.07
2023-03-06T01:58:24.947Z,6.07
2023-03-06T01:59:28.533Z,6.07
2023-03-06T02:00:31.440Z,6.06
2023-03-06T02:01:33.639Z,6.08
2023-03-06T02:02:37.086Z,6.07
2023-03-06T02:03:40.092Z,6.06
2023-03-06T02:04:44.092Z,6.05
2023-03-06T02:05:46.220Z,6.05
2023-03-06T02:06:49.179Z,6.04
2023-03-06T02:07:51.870Z,6.05
2023-03-06T02:08:55.320Z,6.04
2023-03-06T02:09:57.071Z,6.04
2023-03-06T02:11:10.339Z,6.04
2023-03-06T02:12:16.305Z,6.04
2023-03-06T02:13:18.800Z,6.03
2023-03-06T02:14:21.449Z,6.03
2023-03-06T02:15:25.660Z,6.01
2023-03-06T02:16:30.867Z,6.02
2023-03-06T02:17:35.388Z,6.02
2023-03-06T02:18:39.118Z,6.03
2023-03-06T02:19:50.052Z,6.04
2023-03-06T02:20:54.971Z,6.03
2023-03-06T02:21:56.741Z,6.02
2023-03-06T02:23:05.799Z,6.02
2023-03-06T02:24:20.052Z,6.01
2023-03-06T02:25:34.157Z,6.00
2023-03-06T02:26:37.683Z,5.99
2023-03-06T02:27:40.553Z,5.97
2023-03-06T02:28:42.702Z,5.96
2023-03-06T02:29:45.316Z,5.96
2023-03-06T02:30:48.968Z,5.98
2023-03-06T02:31:51.800Z,5.96
2023-03-06T02:32:53.621Z,5.96
2023-03-06T02:34:09.021Z,5.96
2023-03-06T02:35:18.466Z,5.96
2023-03-06T02:36:21.072Z,5.97
2023-03-06T02:37:23.707Z,5.98
2023-03-06T02:38:30.348Z,5.98
2023-03-06T02:39:34.315Z,5.98
2023-03-06T02:40:38.572Z,5.97
2023-03-06T02:41:41.396Z,5.96
2023-03-06T02:42:47.279Z,5.95
2023-03-06T02:43:50.406Z,5.97
2023-03-06T02:44:55.156Z,5.97
2023-03-06T02:45:56.789Z,5.98
2023-03-06T02:46:59.432Z,5.99
2023-03-06T02:48:01.042Z,5.99
2023-03-06T02:49:03.644Z,5.98
2023-03-06T02:50:05.530Z,5.99
2023-03-06T02:51:08.017Z,5.99
2023-03-06T02:52:09.627Z,5.99
2023-03-06T02:53:13.350Z,5.99
2023-03-06T02:54:18.179Z,5.98
2023-03-06T02:55:20.658Z,5.98
2023-03-06T02:56:23.491Z,5.98
2023-03-06T02:57:25.996Z,5.98
2023-03-06T02:58:27.787Z,5.96
2023-03-06T02:59:30.333Z,5.96
2023-03-06T03:00:32.610Z,5.97
2023-03-06T03:01:35.158Z,5.96
2023-03-06T03:02:37.071Z,5.97
2023-03-06T03:03:39.630Z,5.96
2023-03-06T03:04:41.352Z,5.95
2023-03-06T03:05:43.867Z,5.96
2023-03-06T03:06:45.378Z,5.97
2023-03-06T03:07:48.152Z,5.97
2023-03-06T03:08:49.674Z,5.96
2023-03-06T03:09:52.287Z,5.96
2023-03-06T03:10:55.665Z,5.97
2023-03-06T03:11:59.527Z,5.97
2023-03-06T03:13:01.111Z,5.97
2023-03-06T03:14:03.603Z,5.96
2023-03-06T03:15:06.731Z,5.96
2023-03-06T03:16:13.859Z,5.94
2023-03-06T03:17:16.030Z,5.95
2023-03-06T03:18:22.797Z,5.95
2023-03-06T03:19:24.363Z,5.96
2023-03-06T03:20:27.036Z,5.96
2023-03-06T03:21:28.664Z,5.97
2023-03-06T03:22:31.691Z,5.97
2023-03-06T03:23:33.343Z,5.97
2023-03-06T03:24:35.986Z,5.96
2023-03-06T03:25:37.552Z,5.96
2023-03-06T03:26:40.148Z,5.96
2023-03-06T03:27:43.523Z,5.94
2023-03-06T03:28:46.173Z,5.94
2023-03-06T03:29:47.789Z,5.92
2023-03-06T03:30:50.288Z,5.91
2023-03-06T03:31:51.887Z,5.90
2023-03-06T03:32:54.621Z,5.90
2023-03-06T03:33:56.221Z,5.89
2023-03-06T03:34:58.801Z,5.89
2023-03-06T03:36:02.613Z,5.89
2023-03-06T03:37:05.497Z,5.89
2023-03-06T03:38:07.069Z,5.89
2023-03-06T03:39:10.123Z,5.89
2023-03-06T03:40:12.729Z,5.88
2023-03-06T03:41:15.248Z,5.87
2023-03-06T03:42:16.796Z,5.87
2023-03-06T03:43:21.302Z,5.87
2023-03-06T03:44:22.939Z,5.88
2023-03-06T03:45:25.667Z,5.88
2023-03-06T03:46:27.479Z,5.86
2023-03-06T03:47:30.482Z,5.85
2023-03-06T03:48:32.100Z,5.83
2023-03-06T03:49:34.620Z,5.82
2023-03-06T03:50:36.160Z,5.79
2023-03-06T03:51:41.873Z,5.79
2023-03-06T03:52:43.444Z,5.78
2023-03-06T03:53:46.546Z,5.78
2023-03-06T03:54:48.195Z,5.78
2023-03-06T03:55:51.478Z,5.78
2023-03-06T03:56:53.013Z,5.76
2023-03-06T03:57:55.506Z,5.76
2023-03-06T03:58:59.201Z,5.75
2023-03-06T04:00:01.760Z,5.75
2023-03-06T04:01:05.306Z,5.74
2023-03-06T04:02:07.849Z,5.75
2023-03-06T04:03:09.548Z,5.75
2023-03-06T04:04:12.138Z,5.75
2023-03-06T04:05:14.979Z,5.76
2023-03-06T04:06:18.708Z,5.77
2023-03-06T04:07:20.225Z,5.77
2023-03-06T04:08:24.276Z,5.79
2023-03-06T04:09:25.829Z,5.81
2023-03-06T04:10:28.781Z,5.81
2023-03-06T04:11:30.343Z,5.82
2023-03-06T04:12:33.306Z,5.81
2023-03-06T04:13:34.872Z,5.82
2023-03-06T04:14:38.747Z,5.83
2023-03-06T04:15:40.258Z,5.83
2023-03-06T04:16:43.103Z,5.83
2023-03-06T04:17:44.618Z,5.82
2023-03-06T04:18:47.205Z,5.82
2023-03-06T04:19:48.891Z,5.80
2023-03-06T04:20:51.499Z,5.79
2023-03-06T04:21:53.048Z,5.80
2023-03-06T04:22:55.564Z,5.79
2023-03-06T04:23:58.394Z,5.81
2023-03-06T04:25:00.898Z,5.83
2023-03-06T04:26:02.724Z,5.84
2023-03-06T04:27:05.650Z,5.84
2023-03-06T04:28:07.819Z,5.87
2023-03-06T04:29:13.507Z,5.87
2023-03-06T04:30:16.598Z,5.87
2023-03-06T04:31:19.192Z,5.87
2023-03-06T04:32:21.638Z,5.89
2023-03-06T04:33:24.560Z,5.89
2023-03-06T04:34:26.175Z,5.91
2023-03-06T04:35:28.915Z,5.89
2023-03-06T04:36:33.054Z,5.90
2023-03-06T04:37:34.665Z,5.92
2023-03-06T04:38:37.202Z,5.92
2023-03-06T04:39:38.774Z,5.92
2023-03-06T04:40:42.931Z,5.91
2023-03-06T04:41:46.224Z,5.92
2023-03-06T04:42:49.171Z,5.92
2023-03-06T04:43:51.412Z,5.93
2023-03-06T04:44:53.938Z,5.92
2023-03-06T04:45:58.053Z,5.90
2023-03-06T04:47:01.265Z,5.89
2023-03-06T04:48:03.102Z,5.87
2023-03-06T04:49:05.678Z,5.85
2023-03-06T04:50:08.858Z,5.85
2023-03-06T04:51:12.257Z,5.83
2023-03-06T04:52:13.830Z,5.79
2023-03-06T04:53:16.905Z,5.81
2023-03-06T04:54:19.119Z,5.82
2023-03-06T04:55:21.940Z,5.82
2023-03-06T04:56:23.653Z,5.82
2023-03-06T04:57:26.148Z,5.83
2023-03-06T04:58:27.736Z,5.84
2023-03-06T04:59:30.247Z,5.85
2023-03-06T05:00:31.864Z,5.85
2023-03-06T05:01:36.074Z,5.86
2023-03-06T05:02:37.663Z,5.87
2023-03-06T05:03:40.182Z,5.87
2023-03-06T05:04:41.813Z,5.87
2023-03-06T05:05:44.390Z,5.86
2023-03-06T05:06:46.383Z,5.88
2023-03-06T05:07:48.913Z,5.89
2023-03-06T05:08:50.432Z,5.89
2023-03-06T05:09:53.318Z,5.90
2023-03-06T05:10:56.905Z,5.90
2023-03-06T05:11:59.436Z,5.91
2023-03-06T05:13:01.049Z,5.91
2023-03-06T05:14:13.219Z,5.90
2023-03-06T05:15:16.386Z,5.91
2023-03-06T05:16:18.929Z,5.91
2023-03-06T05:17:21.962Z,5.91
2023-03-06T05:18:24.440Z,5.90
2023-03-06T05:19:26.249Z,5.90
2023-03-06T05:20:29.076Z,5.90
2023-03-06T05:21:30.649Z,5.91
2023-03-06T05:22:33.327Z,5.92
2023-03-06T05:23:38.296Z,5.91
2023-03-06T05:24:41.605Z,5.90
2023-03-06T05:25:43.280Z,5.89
2023-03-06T05:26:45.934Z,5.89
2023-03-06T05:27:47.490Z,5.88
2023-03-06T05:28:50.035Z,5.89
2023-03-06T05:29:51.599Z,5.89
2023-03-06T05:30:54.076Z,5.90
2023-03-06T05:31:55.928Z,5.91
2023-03-06T05:33:00.393Z,5.91
2023-03-06T05:34:01.992Z,5.91
2023-03-06T05:35:06.275Z,5.89
2023-03-06T05:36:08.941Z,5.89
2023-03-06T05:37:11.473Z,5.89
2023-03-06T05:38:13.711Z,5.88
2023-03-06T05:39:16.284Z,5.89
2023-03-06T05:40:18.678Z,5.87
2023-03-06T05:41:21.678Z,5.87
2023-03-06T05:42:23.504Z,5.86
2023-03-06T05:43:26.421Z,5.86
2023-03-06T05:44:30.871Z,5.87
2023-03-06T05:45:33.505Z,5.86
2023-03-06T05:46:35.406Z,5.85
2023-03-06T05:47:38.434Z,5.82
2023-03-06T05:48:41.330Z,5.81
2023-03-06T05:49:43.933Z,5.79
2023-03-06T05:50:45.484Z,5.78
2023-03-06T05:51:48.021Z,5.77
2023-03-06T05:52:50.996Z,5.76
2023-03-06T05:53:52.779Z,5.75
2023-03-06T05:54:56.029Z,5.77
2023-03-06T05:55:58.477Z,5.78
2023-03-06T05:57:01.153Z,5.79
2023-03-06T05:58:02.726Z,5.79
2023-03-06T05:59:05.267Z,5.82
2023-03-06T06:00:09.161Z,5.82
2023-03-06T06:01:20.742Z,5.82
2023-03-06T06:02:22.630Z,5.81
2023-03-06T06:03:25.768Z,5.79
2023-03-06T06:04:28.748Z,5.79
2023-03-06T06:05:31.256Z,5.79
2023-03-06T06:06:32.771Z,5.79
2023-03-06T06:07:35.355Z,5.78
2023-03-06T06:08:37.340Z,5.75
2023-03-06T06:09:39.964Z,5.74
2023-03-06T06:10:41.717Z,5.72
2023-03-06T06:11:44.596Z,5.72
2023-03-06T06:12:46.123Z,5.70
2023-03-06T06:13:49.961Z,5.70
2023-03-06T06:14:52.464Z,5.69
2023-03-06T06:15:54.272Z,5.70
2023-03-06T06:16:57.331Z,5.69
2023-03-06T06:17:59.004Z,5.71
2023-03-06T06:19:01.544Z,5.71
2023-03-06T06:20:06.477Z,5.71
2023-03-06T06:21:11.425Z,5.72
2023-03-06T06:22:14.158Z,5.73
2023-03-06T06:23:15.781Z,5.74
2023-03-06T06:24:20.304Z,5.74
2023-03-06T06:25:21.851Z,5.74
2023-03-06T06:26:24.389Z,5.74
2023-03-06T06:27:25.978Z,5.75
2023-03-06T06:28:28.652Z,5.72
2023-03-06T06:29:30.360Z,5.71
2023-03-06T06:30:42.904Z,5.69
2023-03-06T06:31:44.824Z,5.69
2023-03-06T06:32:47.369Z,5.69
2023-03-06T06:33:48.902Z,5.70
2023-03-06T06:34:51.559Z,5.70
2023-03-06T06:35:54.784Z,5.70
2023-03-06T06:36:57.356Z,5.69
2023-03-06T06:38:00.010Z,5.67
2023-03-06T06:39:01.885Z,5.69
2023-03-06T06:40:05.419Z,5.67
2023-03-06T06:41:35.576Z,5.68
2023-03-06T06:42:36.966Z,5.69
2023-03-06T06:43:40.766Z,5.69
2023-03-06T06:44:43.418Z,5.66
2023-03-06T06:45:44.976Z,5.66
2023-03-06T06:48:12.748Z,5.65
2023-03-06T06:49:14.775Z,5.64
2023-03-06T06:50:17.626Z,5.64
2023-03-06T06:51:20.813Z,5.64
2023-03-06T06:52:24.384Z,5.64
2023-03-06T06:53:27.431Z,5.64
2023-03-06T06:54:31.056Z,5.65
2023-03-06T06:55:33.586Z,5.66
2023-03-06T06:56:35.447Z,5.68
2023-03-06T06:57:38.103Z,5.69
2023-03-06T06:58:39.766Z,5.70
2023-03-06T06:59:42.562Z,5.71
2023-03-06T07:00:44.237Z,5.72
2023-03-06T07:01:47.043Z,5.73
2023-03-06T07:02:51.084Z,5.74
2023-03-06T07:03:52.665Z,5.75
2023-03-06T07:05:04.802Z,5.77
2023-03-06T07:06:16.037Z,5.79
2023-03-06T07:07:19.903Z,5.78
2023-03-06T07:08:21.644Z,5.78
2023-03-06T07:09:24.286Z,5.78
2023-03-06T07:10:26.977Z,5.81
2023-03-06T07:11:28.544Z,5.83
2023-03-06T07:12:32.721Z,5.85
2023-03-06T07:13:34.399Z,5.88
2023-03-06T07:14:37.241Z,5.90
2023-03-06T07:15:38.972Z,5.92
2023-03-06T07:16:41.466Z,5.92
2023-03-06T07:17:43.149Z,5.92
2023-03-06T07:18:46.221Z,5.93
2023-03-06T07:19:49.085Z,5.95
2023-03-06T07:20:51.637Z,5.96
2023-03-06T07:21:54.160Z,5.99
2023-03-06T07:22:58.029Z,6.01
2023-03-06T07:24:00.542Z,6.04
2023-03-06T07:25:03.261Z,6.06
2023-03-06T07:26:06.196Z,6.07
2023-03-06T07:27:08.077Z,6.06
2023-03-06T07:28:10.713Z,6.08
2023-03-06T07:29:12.300Z,6.08
2023-03-06T07:30:15.157Z,6.08
2023-03-06T07:31:17.724Z,6.08
2023-03-06T07:32:20.655Z,6.07
2023-03-06T07:33:23.235Z,6.06
2023-03-06T07:34:25.857Z,6.07
2023-03-06T07:35:27.637Z,6.07
2023-03-06T07:36:30.225Z,6.03
2023-03-06T07:37:32.925Z,6.05
2023-03-06T07:38:36.281Z,6.05
2023-03-06T07:39:38.826Z,6.05
2023-03-06T07:40:42.138Z,6.05
2023-03-06T07:41:43.741Z,6.06
2023-03-06T07:42:46.838Z,6.06
2023-03-06T07:43:49.233Z,6.07
2023-03-06T07:44:51.753Z,6.07
2023-03-06T07:45:58.117Z,6.07
2023-03-06T07:46:59.665Z,6.06
2023-03-06T07:48:02.203Z,6.05
2023-03-06T07:49:03.784Z,6.05
2023-03-06T07:50:07.790Z,6.05
2023-03-06T07:51:14.761Z,6.05
2023-03-06T07:52:17.287Z,6.06
2023-03-06T07:53:22.431Z,6.07
2023-03-06T07:54:26.305Z,6.09
2023-03-06T07:55:28.020Z,6.12
2023-03-06T07:56:30.507Z,6.14
2023-03-06T07:57:32.120Z,6.15
2023-03-06T07:58:34.616Z,6.18
2023-03-06T07:59:37.211Z,6.20
2023-03-06T08:00:38.788Z,6.22
2023-03-06T08:01:41.269Z,6.23
2023-03-06T08:02:43.335Z,6.26
2023-03-06T08:03:46.390Z,6.27
2023-03-06T08:04:52.199Z,6.29
2023-03-06T08:05:54.696Z,6.32
2023-03-06T08:06:57.484Z,6.34
2023-03-06T08:08:01.085Z,6.36
2023-03-06T08:09:03.163Z,6.36
2023-03-06T08:10:07.905Z,6.37
2023-03-06T08:11:11.272Z,6.37
2023-03-06T08:12:15.752Z,6.38
2023-03-06T08:13:19.085Z,6.38
2023-03-06T08:14:21.674Z,6.39
2023-03-06T08:15:23.432Z,6.40
2023-03-06T08:16:28.496Z,6.41
2023-03-06T08:17:30.127Z,6.44
2023-03-06T08:18:33.072Z,6.47
2023-03-06T08:19:34.664Z,6.49
2023-03-06T08:20:37.231Z,6.50
2023-03-06T08:21:39.908Z,6.53
2023-03-06T08:22:41.918Z,6.56
2023-03-06T08:23:44.938Z,6.59
2023-03-06T08:24:47.529Z,6.62
2023-03-06T08:25:56.939Z,6.66
2023-03-06T08:26:59.559Z,6.69
2023-03-06T08:28:02.154Z,6.70
2023-03-06T08:29:04.793Z,6.72
2023-03-06T08:30:07.958Z,6.75
2023-03-06T08:31:13.246Z,6.77
2023-03-06T08:32:15.929Z,6.78
2023-03-06T08:33:18.490Z,6.80
2023-03-06T08:34:24.156Z,6.81
2023-03-06T08:35:26.746Z,6.86
2023-03-06T08:36:29.158Z,6.88
2023-03-06T08:37:31.754Z,6.91
2023-03-06T08:38:35.301Z,6.92
2023-03-06T08:39:37.845Z,6.91
2023-03-06T08:40:39.581Z,6.90
2023-03-06T08:41:43.547Z,6.86
2023-03-06T08:42:48.834Z,6.83
2023-03-06T08:43:50.920Z,6.80
2023-03-06T08:44:53.441Z,6.80
2023-03-06T08:45:55.746Z,6.80
2023-03-06T08:46:58.452Z,6.82
2023-03-06T08:48:00.025Z,6.82
2023-03-06T08:49:03.022Z,6.83
2023-03-06T08:50:06.115Z,6.83
2023-03-06T08:51:09.540Z,6.82
2023-03-06T08:52:12.443Z,6.85
2023-03-06T08:53:15.166Z,6.88
2023-03-06T08:54:17.712Z,6.89
2023-03-06T08:55:20.223Z,6.90
2023-03-06T08:56:24.571Z,6.90
2023-03-06T08:57:28.424Z,6.89
2023-03-06T08:58:31.840Z,6.89
2023-03-06T08:59:33.385Z,6.87
2023-03-06T09:00:36.151Z,6.88
2023-03-06T09:01:39.828Z,6.86
2023-03-06T09:02:42.663Z,6.87
2023-03-06T09:03:44.570Z,6.85
2023-03-06T09:04:47.057Z,6.84
2023-03-06T09:05:49.086Z,6.84
2023-03-06T09:06:52.143Z,6.83
2023-03-06T09:07:54.606Z,6.81
2023-03-06T09:08:57.355Z,6.81
2023-03-06T09:09:59.891Z,6.81
2023-03-06T09:11:01.498Z,6.82
2023-03-06T09:12:04.388Z,6.81
2023-03-06T09:13:07.439Z,6.81
2023-03-06T09:14:10.003Z,6.78
2023-03-06T09:15:14.279Z,6.77
2023-03-06T09:16:15.861Z,6.75
2023-03-06T09:17:18.461Z,6.73
2023-03-06T09:18:20.031Z,6.72
2023-03-06T09:19:22.552Z,6.70
2023-03-06T09:20:24.201Z,6.69
2023-03-06T09:21:28.091Z,6.69
2023-03-06T09:22:29.650Z,6.70
2023-03-06T09:23:32.468Z,6.71
2023-03-06T09:24:35.048Z,6.73
2023-03-06T09:25:36.852Z,6.74
2023-03-06T09:26:46.050Z,6.76
2023-03-06T09:28:01.800Z,6.79
2023-03-06T09:29:09.596Z,6.85
2023-03-06T09:30:12.232Z,6.91
2023-03-06T09:31:16.838Z,6.94
2023-03-06T09:32:19.446Z,6.98
2023-03-06T09:33:22.132Z,7.01
2023-03-06T09:34:24.883Z,7.03
2023-03-06T09:35:26.475Z,7.05
2023-03-06T09:36:29.086Z,7.09
2023-03-06T09:37:31.575Z,7.14
2023-03-06T09:38:33.454Z,7.21
2023-03-06T09:39:36.095Z,7.25
2023-03-06T09:40:49.854Z,7.27
2023-03-06T09:41:53.068Z,7.27
2023-03-06T09:42:54.702Z,7.24
2023-03-06T09:44:04.894Z,7.20
2023-03-06T09:45:14.246Z,7.14
2023-03-06T09:46:23.264Z,7.10
2023-03-06T09:47:46.536Z,7.05
2023-03-06T09:49:01.363Z,7.02
2023-03-06T09:50:14.859Z,6.97
2023-03-06T09:51:22.046Z,6.97
2023-03-06T09:52:31.472Z,6.96
2023-03-06T09:53:50.560Z,6.96
2023-03-06T09:54:55.472Z,6.97
2023-03-06T09:56:00.956Z,6.96
2023-03-06T09:57:03.794Z,6.96
2023-03-06T09:58:15.170Z,6.95
2023-03-06T09:59:24.348Z,6.95
2023-03-06T10:00:33.058Z,6.96
2023-03-06T10:01:40.893Z,6.97
2023-03-06T10:02:47.249Z,6.98
2023-03-06T10:03:55.216Z,6.97
2023-03-06T10:05:01.612Z,6.95
2023-03-06T10:06:14.388Z,6.93
2023-03-06T10:07:21.723Z,6.93
2023-03-06T10:08:31.183Z,6.92
2023-03-06T10:09:42.803Z,6.93
2023-03-06T10:10:50.265Z,6.94
2023-03-06T10:11:57.887Z,6.95
2023-03-06T10:13:04.803Z,6.96
2023-03-06T10:14:17.727Z,6.99
2023-03-06T10:15:25.024Z,7.00
2023-03-06T10:16:30.554Z,7.03
2023-03-06T10:17:36.057Z,7.04
2023-03-06T10:18:39.293Z,7.06
2023-03-06T10:19:42.080Z,7.07
2023-03-06T10:20:50.387Z,7.09
2023-03-06T10:21:59.532Z,7.11
2023-03-06T10:23:40.436Z,7.14
2023-03-06T10:24:53.297Z,7.14
2023-03-06T10:26:01.895Z,7.13
2023-03-06T10:27:15.939Z,7.13
2023-03-06T10:28:22.170Z,7.12
2023-03-06T10:29:56.313Z,7.11
2023-03-06T10:31:10.619Z,7.11
2023-03-06T10:32:29.036Z,7.07
2023-03-06T10:33:48.640Z,7.02
2023-03-06T10:34:51.476Z,6.99
2023-03-06T10:35:56.478Z,6.98
2023-03-06T10:37:02.283Z,6.96
2023-03-06T10:38:16.583Z,6.94
2023-03-06T10:39:20.980Z,6.93
2023-03-06T10:40:29.428Z,6.91
2023-03-06T10:41:35.706Z,6.90
2023-03-06T10:42:37.523Z,6.90
2023-03-06T10:43:42.378Z,6.92
2023-03-06T10:44:44.900Z,6.98
2023-03-06T10:45:49.754Z,7.02
2023-03-06T10:46:54.598Z,7.07
2023-03-06T10:48:11.792Z,7.14
2023-03-06T10:49:25.286Z,7.17
2023-03-06T10:50:30.593Z,7.21
2023-03-06T10:51:33.920Z,7.23
2023-03-06T10:52:36.998Z,7.24
2023-03-06T10:53:49.877Z,7.24
2023-03-06T10:54:52.549Z,7.23
2023-03-06T10:56:06.097Z,7.21
2023-03-06T10:57:19.790Z,7.19
2023-03-06T10:58:25.258Z,7.16
2023-03-06T10:59:29.331Z,7.12
2023-03-06T11:00:33.187Z,7.11
2023-03-06T11:01:36.671Z,7.09
2023-03-06T11:02:41.034Z,7.09
2023-03-06T11:03:45.210Z,7.07
2023-03-06T11:04:51.628Z,7.05
2023-03-06T11:05:57.614Z,7.04
2023-03-06T11:07:09.917Z,7.00
2023-03-06T11:08:21.857Z,7.00
2023-03-06T11:09:26.374Z,6.98
2023-03-06T11:10:29.426Z,6.98
2023-03-06T11:11:37.797Z,6.96
2023-03-06T11:12:43.591Z,6.97
2023-03-06T11:13:57.440Z,6.99
2023-03-06T11:15:20.922Z,7.01
2023-03-06T11:16:27.420Z,6.99
2023-03-06T11:17:31.902Z,6.95
2023-03-06T11:18:40.216Z,6.93
2023-03-06T11:19:43.309Z,6.92
2023-03-06T11:20:56.821Z,6.92
2023-03-06T11:22:01.759Z,6.93
2023-03-06T11:23:09.036Z,6.95
2023-03-06T11:24:19.485Z,6.96
2023-03-06T11:25:24.732Z,6.98
2023-03-06T11:26:33.430Z,6.95
2023-03-06T11:27:35.601Z,6.94
2023-03-06T11:28:42.660Z,6.93
2023-03-06T11:29:48.059Z,6.90
2023-03-06T11:30:53.247Z,6.88
2023-03-06T11:31:59.310Z,6.88
2023-03-06T11:33:05.912Z,6.88
2023-03-06T11:34:15.600Z,6.90
2023-03-06T11:35:23.637Z,6.93
2023-03-06T11:36:31.350Z,6.93
2023-03-06T11:37:46.653Z,6.94
2023-03-06T11:38:49.919Z,6.98
2023-03-06T11:40:01.620Z,7.04
2023-03-06T11:41:09.107Z,7.09
2023-03-06T11:42:19.367Z,7.11
2023-03-06T11:43:27.464Z,7.12
2023-03-06T11:44:42.953Z,7.13
2023-03-06T11:46:00.192Z,7.14
2023-03-06T11:47:08.606Z,7.15
2023-03-06T11:48:24.555Z,7.17
2023-03-06T11:49:31.962Z,7.20
2023-03-06T11:50:41.413Z,7.24
2023-03-06T11:51:48.234Z,7.27
2023-03-06T11:52:56.015Z,7.29
2023-03-06T11:54:00.780Z,7.30
2023-03-06T11:55:02.647Z,7.30
2023-03-06T11:56:15.608Z,7.32
2023-03-06T11:57:21.729Z,7.33
2023-03-06T11:58:42.733Z,7.38
2023-03-06T12:00:04.156Z,7.42
2023-03-06T12:01:15.777Z,7.48
2023-03-06T12:02:34.277Z,7.53
2023-03-06T12:04:30.923Z,7.57
2023-03-06T12:05:41.156Z,7.60
2023-03-06T12:06:53.609Z,7.63
2023-03-06T12:08:01.980Z,7.65
2023-03-06T12:09:20.570Z,7.67
2023-03-06T12:10:29.777Z,7.67
2023-03-06T12:11:42.673Z,7.69
2023-03-06T12:13:18.623Z,7.72
2023-03-06T12:14:39.072Z,7.72
2023-03-06T12:15:55.090Z,7.72
2023-03-06T12:17:12.377Z,7.71
2023-03-06T12:18:31.338Z,7.71
2023-03-06T12:19:47.096Z,7.69
2023-03-06T12:21:04.027Z,7.68
2023-03-06T12:22:27.500Z,7.68
2023-03-06T12:23:54.874Z,7.66
2023-03-06T12:25:10.557Z,7.64
2023-03-06T12:26:30.587Z,7.65
2023-03-06T12:27:39.986Z,7.66
2023-03-06T12:29:00.151Z,7.66
2023-03-06T12:30:41.523Z,7.66
2023-03-06T12:31:55.845Z,7.68
2023-03-06T12:33:06.626Z,7.68
2023-03-06T12:34:21.306Z,7.69
2023-03-06T12:35:37.008Z,7.69
2023-03-06T12:36:55.925Z,7.68
2023-03-06T12:38:11.047Z,7.70
2023-03-06T12:39:25.690Z,7.73
2023-03-06T12:40:49.616Z,7.74
2023-03-06T12:42:23.540Z,7.72
2023-03-06T12:44:11.160Z,7.69
2023-03-06T12:45:30.770Z,7.65
2023-03-06T12:46:39.329Z,7.64
2023-03-06T12:47:44.143Z,7.66
2023-03-06T12:48:49.535Z,7.68
2023-03-06T12:49:56.689Z,7.70
2023-03-06T12:51:00.093Z,7.70
2023-03-06T12:52:05.944Z,7.73
2023-03-06T12:53:14.985Z,7.72
2023-03-06T12:54:22.065Z,7.69
2023-03-06T12:55:26.021Z,7.69
2023-03-06T12:56:29.699Z,7.69
2023-03-06T12:57:32.325Z,7.69
2023-03-06T12:58:47.513Z,7.69
2023-03-06T12:59:50.737Z,7.70
2023-03-06T13:01:04.792Z,7.68
2023-03-06T13:02:32.736Z,7.69
2023-03-06T13:04:00.480Z,7.70
2023-03-06T13:05:31.317Z,7.68
2023-03-06T13:06:51.671Z,7.66
2023-03-06T13:08:08.996Z,7.64
2023-03-06T13:09:20.876Z,7.65
2023-03-06T13:10:27.481Z,7.66
2023-03-06T13:12:04.955Z,7.70
2023-03-06T13:13:32.474Z,7.72
2023-03-06T13:14:55.871Z,7.74
2023-03-06T13:16:14.024Z,7.78
2023-03-06T13:17:36.558Z,7.85
2023-03-06T13:19:02.023Z,7.92
2023-03-06T13:20:29.302Z,7.97
2023-03-06T13:22:03.010Z,8.02
2023-03-06T13:23:50.399Z,8.07
2023-03-06T13:25:26.299Z,8.09
2023-03-06T13:26:55.198Z,8.10
2023-03-06T13:28:03.102Z,8.10
2023-03-06T13:29:44.366Z,8.12
2023-03-06T13:30:56.916Z,8.12
2023-03-06T13:32:17.680Z,8.13
2023-03-06T13:33:54.700Z,8.14
2023-03-06T13:34:56.440Z,8.15
2023-03-06T13:35:59.758Z,8.18
2023-03-06T13:37:35.918Z,8.21
2023-03-06T13:38:58.349Z,8.21
2023-03-06T13:40:30.112Z,8.20
2023-03-06T13:41:44.937Z,8.21
2023-03-06T13:43:22.888Z,8.22
2023-03-06T13:44:50.872Z,8.24
2023-03-06T13:45:53.564Z,8.24
2023-03-06T13:46:58.540Z,8.25
2023-03-06T13:48:25.062Z,8.28
2023-03-06T13:49:25.657Z,8.30
2023-03-06T13:50:39.777Z,8.33
2023-03-06T13:52:04.936Z,8.34
2023-03-06T13:53:53.591Z,8.35
2023-03-06T13:55:09.512Z,8.38
2023-03-06T13:56:32.269Z,8.40
2023-03-06T13:57:58.343Z,8.40
2023-03-06T13:59:21.999Z,8.40
2023-03-06T14:00:49.296Z,8.40
2023-03-06T14:02:02.778Z,8.39
2023-03-06T14:03:37.017Z,8.40
2023-03-06T14:04:54.254Z,8.41
2023-03-06T14:05:55.894Z,8.42
2023-03-06T14:07:26.655Z,8.45
2023-03-06T14:08:32.218Z,8.45
2023-03-06T14:09:38.799Z,8.48
2023-03-06T14:10:44.408Z,8.48
2023-03-06T14:11:50.474Z,8.51
2023-03-06T14:13:02.979Z,8.54
2023-03-06T14:14:05.388Z,8.55
2023-03-06T14:15:18.966Z,8.58
2023-03-06T14:16:24.429Z,8.60
2023-03-06T14:17:29.598Z,8.63
2023-03-06T14:18:38.731Z,8.65
2023-03-06T14:19:42.810Z,8.65
2023-03-06T14:20:47.543Z,8.65
2023-03-06T14:21:55.612Z,8.64
2023-03-06T14:23:30.432Z,8.65
2023-03-06T14:24:36.751Z,8.63
2023-03-06T14:25:43.284Z,8.62
2023-03-06T14:26:48.860Z,8.61
2023-03-06T14:27:54.995Z,8.62
2023-03-06T14:29:00.603Z,8.62
2023-03-06T14:30:07.508Z,8.66
2023-03-06T14:31:16.867Z,8.68
2023-03-06T14:32:23.426Z,8.69
2023-03-06T14:33:33.120Z,8.70
2023-03-06T14:34:40.993Z,8.70
2023-03-06T14:35:55.632Z,8.68
2023-03-06T14:37:02.522Z,8.69
2023-03-06T14:38:06.434Z,8.72
2023-03-06T14:39:13.921Z,8.77
2023-03-06T14:40:19.957Z,8.81
2023-03-06T14:41:28.989Z,8.82
2023-03-06T14:42:30.910Z,8.82
2023-03-06T14:43:33.483Z,8.84
2023-03-06T14:44:36.329Z,8.85
2023-03-06T14:45:48.009Z,8.87